createdAt,value
2022-12-02T00:01:10.658Z,4.00
2022-12-02T00:03:37.685Z,3.90
2022-12-02T00:06:05.379Z,4.00
2022-12-02T00:08:34.084Z,4.10
2022-12-02T00:11:02.553Z,4.10
2022-12-02T00:13:43.130Z,4.10
2022-12-02T00:16:20.319Z,4.10
2022-12-02T00:18:47.533Z,4.10
2022-12-02T00:21:14.199Z,3.90
2022-12-02T00:23:40.877Z,4.10
2022-12-02T00:26:07.628Z,4.10
2022-12-02T00:28:34.331Z,4.20
2022-12-02T00:31:00.990Z,4.10
2022-12-02T00:33:28.013Z,4.00
2022-12-02T00:35:54.937Z,4.00
2022-12-02T00:38:21.596Z,4.10
2022-12-02T00:40:48.321Z,4.10
2022-12-02T00:43:33.700Z,4.20
2022-12-02T00:46:18.922Z,4.10
2022-12-02T00:48:45.681Z,4.10
2022-12-02T00:51:12.392Z,4.10
2022-12-02T00:53:39.078Z,4.10
2022-12-02T00:56:05.998Z,4.10
2022-12-02T00:58:32.658Z,4.10
2022-12-02T01:00:59.967Z,4.20
2022-12-02T01:03:26.693Z,4.20
2022-12-02T01:05:53.387Z,4.20
2022-12-02T01:08:22.562Z,4.20
2022-12-02T01:10:49.222Z,4.30
2022-12-02T01:13:16.274Z,4.30
2022-12-02T01:15:43.015Z,4.40
2022-12-02T01:18:09.687Z,4.30
2022-12-02T01:20:36.360Z,4.30
2022-12-02T01:23:03.190Z,4.20
2022-12-02T01:25:29.882Z,4.30
2022-12-02T01:27:57.680Z,4.20
2022-12-02T01:30:25.600Z,4.30
2022-12-02T01:32:52.309Z,4.40
2022-12-02T01:35:20.267Z,4.40
2022-12-02T01:37:46.989Z,4.30
2022-12-02T01:40:14.473Z,4.10
2022-12-02T01:42:41.379Z,4.20
2022-12-02T01:45:09.360Z,4.20
2022-12-02T01:47:37.204Z,4.10
2022-12-02T01:50:05.664Z,4.00
2022-12-02T01:52:32.543Z,4.10
2022-12-02T01:54:59.252Z,4.10
2022-12-02T01:57:29.239Z,4.00
2022-12-02T01:59:56.657Z,4.10
2022-12-02T02:06:39.301Z,4.10
2022-12-02T02:09:07.607Z,4.10
2022-12-02T02:11:35.762Z,4.10
2022-12-02T02:14:05.941Z,4.10
2022-12-02T02:16:33.078Z,4.10
2022-12-02T02:19:01.324Z,4.00
2022-12-02T02:21:34.340Z,4.00
2022-12-02T02:24:01.742Z,4.00
2022-12-02T02:26:29.130Z,4.10
2022-12-02T02:28:55.878Z,4.10
2022-12-02T02:31:22.818Z,4.10
2022-12-02T02:33:50.021Z,4.20
2022-12-02T02:36:16.967Z,4.10
2022-12-02T02:38:43.837Z,4.00
2022-12-02T02:41:10.823Z,4.00
2022-12-02T02:43:38.760Z,4.10
2022-12-02T02:46:07.531Z,4.20
2022-12-02T02:48:38.608Z,4.20
2022-12-02T02:51:06.306Z,4.20
2022-12-02T02:53:34.985Z,4.20
2022-12-02T02:56:02.999Z,4.20
2022-12-02T02:58:34.613Z,4.20
2022-12-02T03:01:33.570Z,4.20
2022-12-02T03:04:06.072Z,4.00
2022-12-02T03:06:34.712Z,4.00
2022-12-02T03:09:03.497Z,4.00
2022-12-02T03:11:31.034Z,4.00
2022-12-02T03:13:59.017Z,4.10
2022-12-02T03:16:26.532Z,4.20
2022-12-02T03:18:55.081Z,4.10
2022-12-02T03:21:23.031Z,4.10
2022-12-02T03:23:52.179Z,4.00
2022-12-02T03:26:19.132Z,4.00
2022-12-02T03:28:47.346Z,4.00
2022-12-02T03:31:14.356Z,4.10
2022-12-02T03:33:42.197Z,4.00
2022-12-02T03:36:09.873Z,4.00
2022-12-02T03:38:37.371Z,4.10
2022-12-02T03:41:05.801Z,4.10
2022-12-02T03:43:32.639Z,4.10
2022-12-02T03:46:00.450Z,4.20
2022-12-02T03:48:28.053Z,4.00
2022-12-02T03:50:55.986Z,4.00
2022-12-02T03:53:22.983Z,3.80
2022-12-02T03:55:50.120Z,3.80
2022-12-02T03:58:16.899Z,3.80
2022-12-02T04:00:43.661Z,3.90
2022-12-02T04:03:10.368Z,4.00
2022-12-02T04:05:37.186Z,4.00
2022-12-02T04:08:03.941Z,4.00
2022-12-02T04:10:30.605Z,4.00
2022-12-02T04:12:57.280Z,3.70
2022-12-02T04:15:23.932Z,3.70
2022-12-02T04:17:50.625Z,3.90
2022-12-02T04:20:17.306Z,3.90
2022-12-02T04:22:44.162Z,4.00
2022-12-02T04:25:10.835Z,4.10
2022-12-02T04:27:37.774Z,4.10
2022-12-02T04:30:05.054Z,4.10
2022-12-02T04:32:31.768Z,4.00
2022-12-02T04:34:58.458Z,4.00
2022-12-02T04:37:25.773Z,4.00
2022-12-02T04:39:52.475Z,4.10
2022-12-02T04:42:19.184Z,4.20
2022-12-02T04:44:45.824Z,4.20
2022-12-02T04:47:12.515Z,4.00
2022-12-02T04:49:39.149Z,4.00
2022-12-02T04:52:05.917Z,4.00
2022-12-02T04:54:32.654Z,4.10
2022-12-02T04:56:59.359Z,3.90
2022-12-02T04:59:26.030Z,4.10
2022-12-02T05:01:52.725Z,4.10
2022-12-02T05:04:19.441Z,4.00
2022-12-02T05:06:46.224Z,4.10
2022-12-02T05:09:12.906Z,3.90
2022-12-02T05:11:39.572Z,3.80
2022-12-02T05:14:06.289Z,3.80
2022-12-02T05:16:33.126Z,3.80
2022-12-02T05:18:59.887Z,3.80
2022-12-02T05:21:26.546Z,4.00
2022-12-02T05:23:53.302Z,3.90
2022-12-02T05:26:19.962Z,3.70
2022-12-02T05:28:46.660Z,3.80
2022-12-02T05:31:13.363Z,3.70
2022-12-02T05:33:40.167Z,3.80
2022-12-02T05:36:07.063Z,3.80
2022-12-02T05:38:33.745Z,3.90
2022-12-02T05:41:00.392Z,3.90
2022-12-02T05:43:27.215Z,3.80
2022-12-02T05:45:59.055Z,3.90
2022-12-02T05:48:26.136Z,3.90
2022-12-02T05:50:53.879Z,3.90
2022-12-02T05:53:26.828Z,3.80
2022-12-02T05:55:55.760Z,3.70
2022-12-02T05:58:23.576Z,3.60
2022-12-02T06:00:56.170Z,3.80
2022-12-02T06:03:23.393Z,3.80
2022-12-02T06:05:53.188Z,3.80
2022-12-02T06:08:22.440Z,3.90
2022-12-02T06:10:55.195Z,4.00
2022-12-02T06:13:25.451Z,4.10
2022-12-02T06:15:53.775Z,3.90
2022-12-02T06:18:29.737Z,4.10
2022-12-02T06:21:00.897Z,4.10
2022-12-02T06:23:31.075Z,4.10
2022-12-02T06:25:58.880Z,4.00
2022-12-02T06:28:34.582Z,4.10
2022-12-02T06:31:11.591Z,4.10
2022-12-02T06:33:39.474Z,4.10
2022-12-02T06:36:12.433Z,4.10
2022-12-02T06:39:00.200Z,4.00
2022-12-02T06:41:29.951Z,4.00
2022-12-02T06:44:18.722Z,3.90
2022-12-02T06:46:45.979Z,4.00
2022-12-02T06:49:23.699Z,4.10
2022-12-02T06:51:56.988Z,4.10
2022-12-02T06:54:28.838Z,4.20
2022-12-02T06:56:57.852Z,4.30
2022-12-02T06:59:24.857Z,4.20
2022-12-02T07:01:57.467Z,4.20
2022-12-02T07:04:32.288Z,4.10
2022-12-02T07:07:20.770Z,4.20
2022-12-02T07:10:02.354Z,4.20
2022-12-02T07:12:44.128Z,4.10
2022-12-02T07:15:33.025Z,4.00
2022-12-02T07:18:09.005Z,4.10
2022-12-02T07:20:38.828Z,4.00
2022-12-02T07:23:11.861Z,4.00
2022-12-02T07:25:46.217Z,4.10
2022-12-02T07:28:35.014Z,4.20
2022-12-02T07:31:21.009Z,4.20
2022-12-02T07:33:48.127Z,4.30
2022-12-02T07:36:14.884Z,4.40
2022-12-02T07:41:31.940Z,4.30
2022-12-02T07:44:01.555Z,4.30
2022-12-02T07:46:28.306Z,4.20
2022-12-02T07:48:57.361Z,4.10
2022-12-02T07:51:24.749Z,4.10
2022-12-02T07:53:51.480Z,4.10
2022-12-02T07:56:18.503Z,4.20
2022-12-02T07:59:14.196Z,4.20
2022-12-02T08:01:32.180Z,4.10
2022-12-02T08:03:58.922Z,4.10
2022-12-02T08:06:25.685Z,4.00
2022-12-02T08:08:52.364Z,3.90
2022-12-02T08:11:19.051Z,3.90
2022-12-02T08:13:45.732Z,3.90
2022-12-02T08:16:12.463Z,3.90
2022-12-02T08:18:39.281Z,3.80
2022-12-02T08:21:09.010Z,3.80
2022-12-02T08:23:36.702Z,3.80
2022-12-02T08:26:04.847Z,3.80
2022-12-02T08:28:31.550Z,3.80
2022-12-02T08:30:58.322Z,3.90
2022-12-02T08:33:25.044Z,3.90
2022-12-02T08:35:51.788Z,3.60
2022-12-02T08:38:19.289Z,3.70
2022-12-02T08:40:45.965Z,3.80
2022-12-02T08:43:12.652Z,3.90
2022-12-02T08:45:39.361Z,3.80
2022-12-02T08:48:06.111Z,3.90
2022-12-02T08:50:32.816Z,3.90
2022-12-02T08:52:59.576Z,3.70
2022-12-02T08:55:27.422Z,3.80
2022-12-02T08:57:54.065Z,3.60
2022-12-02T09:00:20.884Z,3.70
2022-12-02T09:02:47.734Z,3.70
2022-12-02T09:05:14.671Z,3.80
2022-12-02T09:07:41.590Z,3.80
2022-12-02T09:10:10.540Z,3.90
2022-12-02T09:12:37.253Z,3.80
2022-12-02T09:15:04.847Z,3.70
2022-12-02T09:17:31.629Z,3.90
2022-12-02T09:19:58.307Z,3.50
2022-12-02T09:22:25.248Z,3.30
2022-12-02T09:24:52.153Z,3.50
2022-12-02T09:27:19.275Z,3.60
2022-12-02T09:29:46.102Z,3.50
2022-12-02T09:32:12.835Z,3.70
2022-12-02T09:34:39.591Z,3.70
2022-12-02T09:37:06.383Z,3.80
2022-12-02T09:39:38.435Z,3.90
2022-12-02T09:42:06.624Z,4.10
2022-12-02T09:44:33.318Z,3.90
2022-12-02T09:47:00.295Z,3.80
2022-12-02T09:49:27.091Z,4.00
2022-12-02T09:51:59.571Z,4.10
2022-12-02T09:54:26.782Z,3.80
2022-12-02T09:56:53.939Z,3.90
2022-12-02T09:59:22.739Z,4.00
2022-12-02T10:01:50.066Z,4.10
2022-12-02T10:04:20.920Z,3.80
2022-12-02T10:06:48.101Z,3.90
2022-12-02T10:09:36.061Z,3.70
2022-12-02T10:12:02.907Z,3.60
2022-12-02T10:14:29.838Z,3.50
2022-12-02T10:16:56.920Z,3.40
2022-12-02T10:19:23.736Z,3.20
2022-12-02T10:21:55.396Z,3.30
2022-12-02T10:24:37.810Z,3.50
2022-12-02T10:27:04.936Z,3.40
2022-12-02T10:29:33.015Z,3.50
2022-12-02T10:32:04.281Z,3.50
2022-12-02T10:34:33.985Z,3.50
2022-12-02T10:37:25.100Z,3.60
2022-12-02T10:40:10.248Z,3.50
2022-12-02T10:42:36.909Z,3.60
2022-12-02T10:45:21.801Z,3.70
2022-12-02T10:47:50.207Z,3.70
2022-12-02T10:50:24.539Z,3.70
2022-12-02T10:52:58.029Z,3.70
2022-12-02T10:55:26.584Z,3.70
2022-12-02T10:57:55.527Z,3.50
2022-12-02T11:00:26.563Z,3.60
2022-12-02T11:02:56.546Z,3.60
2022-12-02T11:05:26.208Z,3.70
2022-12-02T11:07:59.089Z,3.60
2022-12-02T11:10:39.450Z,3.70
2022-12-02T11:13:18.135Z,3.70
2022-12-02T11:15:53.836Z,3.60
2022-12-02T11:18:23.392Z,3.50
2022-12-02T11:20:54.563Z,3.40
2022-12-02T11:23:23.249Z,3.20
2022-12-02T11:25:58.390Z,3.10
2022-12-02T11:28:27.802Z,3.20
2022-12-02T11:31:14.188Z,3.40
2022-12-02T11:33:44.728Z,3.30
2022-12-02T11:36:14.515Z,3.40
2022-12-02T11:38:48.381Z,3.40
2022-12-02T11:41:16.412Z,3.50
2022-12-02T11:43:46.247Z,3.50
2022-12-02T11:46:40.792Z,3.40
2022-12-02T11:49:31.828Z,3.30
2022-12-02T11:52:11.806Z,3.40
2022-12-02T11:54:44.107Z,3.40
2022-12-02T11:57:41.674Z,3.50
2022-12-02T12:00:37.521Z,3.20
2022-12-02T12:03:14.591Z,3.20
2022-12-02T12:05:43.523Z,3.20
2022-12-02T12:08:10.504Z,3.30
2022-12-02T12:10:39.896Z,3.40
2022-12-02T12:13:13.987Z,3.30
2022-12-02T12:15:55.574Z,3.30
2022-12-02T12:18:38.505Z,3.30
2022-12-02T12:21:05.635Z,3.50
2022-12-02T12:23:35.660Z,3.50
2022-12-02T12:26:03.602Z,3.60
2022-12-02T12:28:33.045Z,3.70
2022-12-02T12:31:01.244Z,3.70
2022-12-02T12:33:28.961Z,3.70
2022-12-02T12:35:57.034Z,3.70
2022-12-02T12:38:30.364Z,3.70
2022-12-02T12:40:58.320Z,3.80
2022-12-02T12:43:25.395Z,3.70
2022-12-02T12:45:52.261Z,3.80
2022-12-02T12:48:19.074Z,3.70
2022-12-02T12:50:45.778Z,3.50
2022-12-02T12:53:12.531Z,3.50
2022-12-02T12:55:39.218Z,3.40
2022-12-02T12:58:05.942Z,3.40
2022-12-02T13:00:32.603Z,3.40
2022-12-02T13:02:59.755Z,3.40
2022-12-02T13:05:26.547Z,3.40
2022-12-02T13:07:53.530Z,3.40
2022-12-02T13:10:21.247Z,3.30
2022-12-02T13:12:48.077Z,3.30
2022-12-02T13:15:15.887Z,3.10
2022-12-02T13:17:48.518Z,3.10
2022-12-02T13:20:16.401Z,3.20
2022-12-02T13:22:43.490Z,3.30
2022-12-02T13:25:11.946Z,3.40
2022-12-02T13:27:39.539Z,3.50
2022-12-02T13:30:10.294Z,3.60
2022-12-02T13:32:37.024Z,3.60
2022-12-02T13:35:04.206Z,3.50
2022-12-02T13:37:30.939Z,3.30
2022-12-02T13:39:57.613Z,3.30
2022-12-02T13:42:24.323Z,3.30
2022-12-02T13:44:51.209Z,3.30
2022-12-02T13:47:18.083Z,3.10
2022-12-02T13:49:44.957Z,3.20
2022-12-02T13:52:11.648Z,3.20
2022-12-02T13:54:38.549Z,3.20
2022-12-02T13:57:05.409Z,3.20
2022-12-02T13:59:37.763Z,3.10
2022-12-02T14:02:05.734Z,3.00
2022-12-02T14:04:32.581Z,2.90
2022-12-02T14:06:59.309Z,2.70
2022-12-02T14:09:26.018Z,2.80
2022-12-02T14:11:52.723Z,2.80
2022-12-02T14:14:19.815Z,2.80
2022-12-02T14:16:46.495Z,2.90
2022-12-02T14:19:13.232Z,3.00
2022-12-02T14:21:39.970Z,2.80
2022-12-02T14:24:06.875Z,3.00
2022-12-02T14:26:33.641Z,3.10
2022-12-02T14:29:00.429Z,3.10
2022-12-02T14:31:27.122Z,3.10
2022-12-02T14:34:11.821Z,3.00
2022-12-02T14:36:39.595Z,3.10
2022-12-02T14:39:06.919Z,3.10
2022-12-02T14:41:33.608Z,2.80
2022-12-02T14:44:00.295Z,2.90
2022-12-02T14:46:30.123Z,2.80
2022-12-02T14:49:23.266Z,2.80
2022-12-02T14:51:43.867Z,2.80
2022-12-02T14:54:10.878Z,2.70
2022-12-02T14:56:37.571Z,2.50
2022-12-02T14:59:07.142Z,2.50
2022-12-02T15:01:36.366Z,2.50
2022-12-02T15:04:03.173Z,2.60
2022-12-02T15:06:29.873Z,2.60
2022-12-02T15:08:56.572Z,2.50
2022-12-02T15:11:23.233Z,2.60
2022-12-02T15:13:49.916Z,2.40
2022-12-02T15:16:16.666Z,2.50
2022-12-02T15:18:43.344Z,2.50
2022-12-02T15:21:13.495Z,2.50
2022-12-02T15:23:40.700Z,2.50
2022-12-02T15:26:07.407Z,2.40
2022-12-02T15:28:34.088Z,2.40
2022-12-02T15:31:00.789Z,2.40
2022-12-02T15:33:27.523Z,2.40
2022-12-02T15:35:54.272Z,2.40
2022-12-02T15:42:15.069Z,2.60
2022-12-02T15:44:41.829Z,2.70
2022-12-02T15:47:08.577Z,2.50
2022-12-02T15:49:35.404Z,2.50
2022-12-02T15:52:02.076Z,2.50
2022-12-02T15:54:29.140Z,2.40
2022-12-02T15:56:59.081Z,2.30
2022-12-02T15:59:28.021Z,2.40
2022-12-02T16:01:54.839Z,2.30
2022-12-02T16:04:21.587Z,2.40
2022-12-02T16:06:48.301Z,2.40
2022-12-02T16:09:15.081Z,2.30
2022-12-02T16:11:41.784Z,2.30
2022-12-02T16:14:08.513Z,2.40
2022-12-02T16:16:35.277Z,2.40
2022-12-02T16:19:01.999Z,2.40
2022-12-02T16:21:28.683Z,2.30
2022-12-02T16:23:55.413Z,2.40
2022-12-02T16:26:22.117Z,2.40
2022-12-02T16:28:48.909Z,2.20
2022-12-02T16:31:15.896Z,2.30
2022-12-02T16:33:42.627Z,2.30
2022-12-02T16:36:10.972Z,2.20
2022-12-02T16:38:37.709Z,2.20
2022-12-02T16:41:04.681Z,2.40
2022-12-02T16:43:31.430Z,2.40
2022-12-02T16:45:58.214Z,2.20
2022-12-02T16:48:25.017Z,2.10
2022-12-02T16:50:55.825Z,2.20
2022-12-02T16:53:23.131Z,2.00
2022-12-02T16:55:49.851Z,2.10
2022-12-02T16:58:16.584Z,2.00
2022-12-02T17:00:43.316Z,2.10
2022-12-02T17:03:10.117Z,2.00
2022-12-02T17:05:36.785Z,2.20
2022-12-02T17:08:03.844Z,2.10
2022-12-02T17:10:30.573Z,2.10
2022-12-02T17:12:57.251Z,2.00
2022-12-02T17:15:23.981Z,2.10
2022-12-02T17:17:50.889Z,2.20
2022-12-02T17:20:17.759Z,2.20
2022-12-02T17:22:44.633Z,2.10
2022-12-02T17:25:13.129Z,2.20
2022-12-02T17:27:40.830Z,2.10
2022-12-02T17:30:08.472Z,2.20
2022-12-02T17:32:35.498Z,2.10
2022-12-02T17:35:02.316Z,2.10
2022-12-02T17:37:29.054Z,2.10
2022-12-02T17:39:55.839Z,2.10
2022-12-02T17:42:22.626Z,2.10
2022-12-02T17:44:49.459Z,2.10
2022-12-02T17:47:16.221Z,2.20
2022-12-02T17:49:42.891Z,2.10
2022-12-02T17:52:24.582Z,2.00
2022-12-02T17:54:51.956Z,2.10
2022-12-02T17:57:18.976Z,2.20
2022-12-02T17:59:45.688Z,2.30
2022-12-02T18:02:12.738Z,2.10
2022-12-02T18:04:44.428Z,2.00
2022-12-02T18:07:12.046Z,2.00
2022-12-02T18:09:39.714Z,2.00
2022-12-02T18:12:07.388Z,1.90
2022-12-02T18:14:34.117Z,1.80
2022-12-02T18:17:00.887Z,1.90
2022-12-02T18:19:27.856Z,1.80
2022-12-02T18:21:54.545Z,1.80
2022-12-02T18:24:21.236Z,1.90
2022-12-02T18:26:47.917Z,1.90
2022-12-02T18:29:15.123Z,1.90
2022-12-02T18:31:41.773Z,1.90
2022-12-02T18:34:08.525Z,1.90
2022-12-02T18:36:35.207Z,1.80
2022-12-02T18:39:01.927Z,1.90
2022-12-02T18:41:28.576Z,1.80
2022-12-02T18:43:55.398Z,1.90
2022-12-02T18:46:22.143Z,2.00
2022-12-02T18:48:48.893Z,1.90
2022-12-02T18:51:15.553Z,1.90
2022-12-02T18:53:42.261Z,1.80
2022-12-02T18:56:08.925Z,2.00
2022-12-02T18:58:35.622Z,2.00
2022-12-02T19:01:02.348Z,2.00
2022-12-02T19:03:29.182Z,2.00
2022-12-02T19:05:55.853Z,2.00
2022-12-02T19:08:22.533Z,2.00
2022-12-02T19:10:49.299Z,2.00
2022-12-02T19:13:16.319Z,1.90
2022-12-02T19:15:43.035Z,1.80
2022-12-02T19:18:10.415Z,1.90
2022-12-02T19:20:37.165Z,1.90
2022-12-02T19:23:03.904Z,1.90
2022-12-02T19:25:31.557Z,1.90
2022-12-02T19:27:59.069Z,1.80
2022-12-02T19:30:27.397Z,1.80
2022-12-02T19:32:54.439Z,1.90
2022-12-02T19:35:21.176Z,2.00
2022-12-02T19:37:47.907Z,2.00
2022-12-02T19:40:14.770Z,2.10
2022-12-02T19:42:41.493Z,2.00
2022-12-02T19:45:11.385Z,2.10
2022-12-02T19:47:38.230Z,2.20
2022-12-02T19:50:05.872Z,2.10
2022-12-02T19:52:32.832Z,2.10
2022-12-02T19:54:59.580Z,2.10
2022-12-02T19:57:26.309Z,1.90
2022-12-02T19:59:53.022Z,2.00
2022-12-02T20:02:19.865Z,2.00
2022-12-02T20:04:46.659Z,1.80
2022-12-02T20:07:13.368Z,2.00
2022-12-02T20:09:40.039Z,2.00
2022-12-02T20:12:06.895Z,2.00
2022-12-02T20:14:33.559Z,1.90
2022-12-02T20:17:00.343Z,1.90
2022-12-02T20:19:27.033Z,1.70
2022-12-02T20:21:53.715Z,1.80
2022-12-02T20:24:20.429Z,1.90
2022-12-02T20:26:47.143Z,1.90
2022-12-02T20:29:13.970Z,1.80
2022-12-02T20:31:40.732Z,1.70
2022-12-02T20:34:07.578Z,1.60
2022-12-02T20:36:34.550Z,1.80
2022-12-02T20:39:01.363Z,1.70
2022-12-02T20:41:28.009Z,1.80
2022-12-02T20:43:54.717Z,1.90
2022-12-02T20:46:23.479Z,1.90
2022-12-02T20:48:50.581Z,1.90
2022-12-02T20:51:17.272Z,1.80
2022-12-02T20:53:44.049Z,1.80
2022-12-02T20:56:10.964Z,1.70
2022-12-02T20:58:37.703Z,1.80
2022-12-02T21:01:09.104Z,1.90
2022-12-02T21:03:38.956Z,1.80
2022-12-02T21:06:05.809Z,1.90
2022-12-02T21:08:32.571Z,2.00
2022-12-02T21:10:59.345Z,2.00
2022-12-02T21:13:26.191Z,1.90
2022-12-02T21:15:52.953Z,1.80
2022-12-02T21:18:19.922Z,1.70
2022-12-02T21:20:46.648Z,1.80
2022-12-02T21:23:13.942Z,1.80
2022-12-02T21:25:40.621Z,1.80
2022-12-02T21:28:07.313Z,1.80
2022-12-02T21:30:36.897Z,1.70
2022-12-02T21:33:04.861Z,1.70
2022-12-02T21:35:31.579Z,1.70
2022-12-02T21:37:58.777Z,1.90
2022-12-02T21:40:25.520Z,1.90
2022-12-02T21:42:52.237Z,1.80
2022-12-02T21:45:19.016Z,1.80
2022-12-02T21:47:45.769Z,1.60
2022-12-02T21:50:12.586Z,1.60
2022-12-02T21:52:39.277Z,1.60
2022-12-02T21:55:06.480Z,1.60
2022-12-02T21:57:33.180Z,1.60
2022-12-02T21:59:59.861Z,1.60
2022-12-02T22:02:27.657Z,1.60
2022-12-02T22:04:54.839Z,1.60
2022-12-02T22:07:40.287Z,1.70
2022-12-02T22:10:09.846Z,1.70
2022-12-02T22:12:36.579Z,1.50
2022-12-02T22:15:03.548Z,1.50
2022-12-02T22:17:30.290Z,1.50
2022-12-02T22:19:57.069Z,1.50
2022-12-02T22:22:23.799Z,1.50
2022-12-02T22:24:50.798Z,1.50
2022-12-02T22:27:17.741Z,1.60
2022-12-02T22:29:44.505Z,1.70
2022-12-02T22:32:11.270Z,1.60
2022-12-02T22:34:37.998Z,1.40
2022-12-02T22:37:04.705Z,1.40
2022-12-02T22:39:31.397Z,1.40
2022-12-02T22:41:58.127Z,1.50
2022-12-02T22:44:24.986Z,1.50
2022-12-02T22:46:51.771Z,1.60
2022-12-02T22:49:18.607Z,1.30
2022-12-02T22:51:45.489Z,1.50
2022-12-02T22:54:12.193Z,1.50
2022-12-02T22:56:38.880Z,1.40
2022-12-02T22:59:05.717Z,1.30
2022-12-02T23:01:34.471Z,1.50
2022-12-02T23:04:01.315Z,1.50
2022-12-02T23:06:28.044Z,1.30
2022-12-02T23:08:54.728Z,1.20
2022-12-02T23:11:21.441Z,1.40
2022-12-02T23:13:48.195Z,1.50
2022-12-02T23:16:14.907Z,1.20
2022-12-02T23:18:41.835Z,1.30
2022-12-02T23:21:08.542Z,1.50
2022-12-02T23:23:35.413Z,1.40
2022-12-02T23:26:02.170Z,1.40
2022-12-02T23:28:28.820Z,1.30
2022-12-02T23:30:55.656Z,1.40
2022-12-02T23:33:23.649Z,1.30
2022-12-02T23:35:50.394Z,1.40
2022-12-02T23:38:17.155Z,1.40
2022-12-02T23:40:44.026Z,1.30
2022-12-02T23:43:10.722Z,1.20
2022-12-02T23:45:37.464Z,1.30
2022-12-02T23:48:04.243Z,1.40
2022-12-02T23:50:30.977Z,1.30
2022-12-02T23:52:57.675Z,1.30
2022-12-02T23:55:24.486Z,1.30
2022-12-02T23:57:51.222Z,1.20
